sensor_id;sensor_type;location;lat;lon;timestamp;P1;durP1;ratioP1;P2;durP2;ratioP2
11034;SDS011;5571;48.110;-1.706;2022-10-26T00:00:03;15.40;;;3.50;;
11034;SDS011;5571;48.110;-1.706;2022-10-26T00:02:29;12.03;;;3.17;;
11034;SDS011;5571;48.110;-1.706;2022-10-26T00:04:55;13.27;;;2.70;;
11034;SDS011;5571;48.110;-1.706;2022-10-26T00:07:20;11.60;;;2.90;;
11034;SDS011;5571;48.110;-1.706;2022-10-26T00:09:45;7.57;;;2.93;;
11034;SDS011;5571;48.110;-1.706;2022-10-26T00:12:11;10.53;;;3.07;;
11034;SDS011;5571;48.110;-1.706;2022-10-26T00:14:36;9.50;;;2.93;;
11034;SDS011;5571;48.110;-1.706;2022-10-26T00:17:01;11.97;;;3.13;;
11034;SDS011;5571;48.110;-1.706;2022-10-26T00:19:27;11.17;;;3.33;;
11034;SDS011;5571;48.110;-1.706;2022-10-26T00:21:52;10.53;;;2.93;;
11034;SDS011;5571;48.110;-1.706;2022-10-26T00:24:18;12.57;;;3.13;;
11034;SDS011;5571;48.110;-1.706;2022-10-26T00:26:43;12.60;;;2.80;;
11034;SDS011;5571;48.110;-1.706;2022-10-26T00:29:10;13.13;;;2.90;;
11034;SDS011;5571;48.110;-1.706;2022-10-26T00:31:36;13.13;;;2.73;;
11034;SDS011;5571;48.110;-1.706;2022-10-26T00:34:03;13.30;;;2.90;;
11034;SDS011;5571;48.110;-1.706;2022-10-26T00:36:28;9.27;;;2.17;;
11034;SDS011;5571;48.110;-1.706;2022-10-26T00:38:54;14.73;;;2.80;;
11034;SDS011;5571;48.110;-1.706;2022-10-26T00:41:25;9.10;;;2.57;;
11034;SDS011;5571;48.110;-1.706;2022-10-26T00:43:53;12.80;;;2.60;;
11034;SDS011;5571;48.110;-1.706;2022-10-26T00:46:29;12.70;;;2.50;;
11034;SDS011;5571;48.110;-1.706;2022-10-26T00:48:59;12.80;;;2.67;;
11034;SDS011;5571;48.110;-1.706;2022-10-26T00:51:35;14.73;;;3.10;;
11034;SDS011;5571;48.110;-1.706;2022-10-26T00:54:06;10.47;;;2.50;;
11034;SDS011;5571;48.110;-1.706;2022-10-26T00:56:36;10.77;;;2.90;;
11034;SDS011;5571;48.110;-1.706;2022-10-26T00:59:03;12.47;;;2.67;;
11034;SDS011;5571;48.110;-1.706;2022-10-26T01:01:32;10.07;;;2.73;;
11034;SDS011;5571;48.110;-1.706;2022-10-26T01:04:00;16.07;;;2.87;;
11034;SDS011;5571;48.110;-1.706;2022-10-26T01:06:27;14.70;;;2.70;;
11034;SDS011;5571;48.110;-1.706;2022-10-26T01:08:54;13.67;;;2.53;;
11034;SDS011;5571;48.110;-1.706;2022-10-26T01:11:20;14.67;;;2.57;;
11034;SDS011;5571;48.110;-1.706;2022-10-26T01:13:46;10.30;;;2.60;;
11034;SDS011;5571;48.110;-1.706;2022-10-26T01:18:53;14.83;;;2.50;;
11034;SDS011;5571;48.110;-1.706;2022-10-26T01:21:33;15.73;;;2.63;;
11034;SDS011;5571;48.110;-1.706;2022-10-26T01:26:49;11.50;;;2.83;;
11034;SDS011;5571;48.110;-1.706;2022-10-26T01:35:49;11.37;;;2.20;;
11034;SDS011;5571;48.110;-1.706;2022-10-26T01:43:34;13.60;;;2.40;;
11034;SDS011;5571;48.110;-1.706;2022-10-26T01:46:04;12.20;;;2.03;;
11034;SDS011;5571;48.110;-1.706;2022-10-26T01:48:31;11.67;;;2.07;;
11034;SDS011;5571;48.110;-1.706;2022-10-26T01:50:58;13.30;;;2.30;;
11034;SDS011;5571;48.110;-1.706;2022-10-26T01:53:26;10.93;;;2.20;;
11034;SDS011;5571;48.110;-1.706;2022-10-26T01:55:53;10.80;;;2.23;;
11034;SDS011;5571;48.110;-1.706;2022-10-26T02:01:04;10.13;;;2.30;;
11034;SDS011;5571;48.110;-1.706;2022-10-26T02:03:37;9.30;;;2.13;;
11034;SDS011;5571;48.110;-1.706;2022-10-26T02:12:17;13.20;;;2.73;;
11034;SDS011;5571;48.110;-1.706;2022-10-26T02:14:58;12.17;;;2.37;;
11034;SDS011;5571;48.110;-1.706;2022-10-26T02:17:53;16.47;;;2.67;;
11034;SDS011;5571;48.110;-1.706;2022-10-26T02:20:35;12.40;;;2.40;;
11034;SDS011;5571;48.110;-1.706;2022-10-26T02:23:06;12.00;;;2.30;;
11034;SDS011;5571;48.110;-1.706;2022-10-26T02:25:34;11.97;;;2.87;;
11034;SDS011;5571;48.110;-1.706;2022-10-26T02:28:09;10.93;;;2.60;;
11034;SDS011;5571;48.110;-1.706;2022-10-26T02:30:38;10.30;;;2.20;;
11034;SDS011;5571;48.110;-1.706;2022-10-26T02:33:06;10.80;;;2.17;;
11034;SDS011;5571;48.110;-1.706;2022-10-26T02:35:35;11.77;;;2.70;;
11034;SDS011;5571;48.110;-1.706;2022-10-26T02:38:03;11.83;;;2.33;;
11034;SDS011;5571;48.110;-1.706;2022-10-26T02:40:32;11.53;;;2.50;;
11034;SDS011;5571;48.110;-1.706;2022-10-26T02:43:01;13.73;;;2.63;;
11034;SDS011;5571;48.110;-1.706;2022-10-26T02:45:32;8.83;;;2.03;;
11034;SDS011;5571;48.110;-1.706;2022-10-26T02:48:02;14.53;;;3.10;;
11034;SDS011;5571;48.110;-1.706;2022-10-26T02:50:39;10.20;;;2.60;;
11034;SDS011;5571;48.110;-1.706;2022-10-26T02:56:01;12.93;;;2.77;;
11034;SDS011;5571;48.110;-1.706;2022-10-26T02:58:33;14.33;;;2.83;;
11034;SDS011;5571;48.110;-1.706;2022-10-26T03:01:05;11.90;;;2.90;;
11034;SDS011;5571;48.110;-1.706;2022-10-26T03:03:31;16.80;;;3.23;;
11034;SDS011;5571;48.110;-1.706;2022-10-26T03:05:56;15.63;;;3.10;;
11034;SDS011;5571;48.110;-1.706;2022-10-26T03:08:22;18.67;;;3.20;;
11034;SDS011;5571;48.110;-1.706;2022-10-26T03:10:47;16.27;;;3.30;;
11034;SDS011;5571;48.110;-1.706;2022-10-26T03:13:13;23.13;;;3.50;;
11034;SDS011;5571;48.110;-1.706;2022-10-26T03:15:38;21.50;;;3.50;;
11034;SDS011;5571;48.110;-1.706;2022-10-26T03:18:04;17.23;;;3.40;;
11034;SDS011;5571;48.110;-1.706;2022-10-26T03:20:30;20.30;;;3.70;;
11034;SDS011;5571;48.110;-1.706;2022-10-26T03:22:55;16.40;;;3.53;;
11034;SDS011;5571;48.110;-1.706;2022-10-26T03:25:23;25.33;;;4.17;;
11034;SDS011;5571;48.110;-1.706;2022-10-26T03:27:59;21.83;;;3.53;;
11034;SDS011;5571;48.110;-1.706;2022-10-26T03:30:25;18.57;;;3.50;;
11034;SDS011;5571;48.110;-1.706;2022-10-26T03:32:51;24.33;;;3.60;;
11034;SDS011;5571;48.110;-1.706;2022-10-26T03:35:17;30.60;;;4.43;;
11034;SDS011;5571;48.110;-1.706;2022-10-26T03:37:42;19.43;;;4.00;;
11034;SDS011;5571;48.110;-1.706;2022-10-26T03:40:08;21.70;;;3.73;;
11034;SDS011;5571;48.110;-1.706;2022-10-26T03:42:36;20.23;;;3.77;;
11034;SDS011;5571;48.110;-1.706;2022-10-26T03:45:02;21.97;;;3.70;;
11034;SDS011;5571;48.110;-1.706;2022-10-26T03:47:28;23.93;;;4.10;;
11034;SDS011;5571;48.110;-1.706;2022-10-26T03:49:54;25.47;;;4.53;;
11034;SDS011;5571;48.110;-1.706;2022-10-26T03:52:19;22.67;;;3.53;;
11034;SDS011;5571;48.110;-1.706;2022-10-26T03:54:45;25.53;;;4.53;;
11034;SDS011;5571;48.110;-1.706;2022-10-26T03:57:10;20.67;;;3.73;;
11034;SDS011;5571;48.110;-1.706;2022-10-26T03:59:36;24.77;;;4.47;;
11034;SDS011;5571;48.110;-1.706;2022-10-26T04:02:01;25.53;;;4.07;;
11034;SDS011;5571;48.110;-1.706;2022-10-26T04:04:27;27.67;;;3.97;;
11034;SDS011;5571;48.110;-1.706;2022-10-26T04:06:52;31.87;;;4.33;;
11034;SDS011;5571;48.110;-1.706;2022-10-26T04:09:17;28.53;;;4.10;;
11034;SDS011;5571;48.110;-1.706;2022-10-26T04:11:43;17.47;;;3.53;;
11034;SDS011;5571;48.110;-1.706;2022-10-26T04:14:08;23.40;;;3.80;;
11034;SDS011;5571;48.110;-1.706;2022-10-26T04:16:33;25.00;;;3.80;;
11034;SDS011;5571;48.110;-1.706;2022-10-26T04:18:59;21.13;;;4.27;;
11034;SDS011;5571;48.110;-1.706;2022-10-26T04:21:25;21.47;;;3.97;;
11034;SDS011;5571;48.110;-1.706;2022-10-26T04:23:50;18.73;;;3.47;;
11034;SDS011;5571;48.110;-1.706;2022-10-26T04:26:15;21.20;;;3.80;;
11034;SDS011;5571;48.110;-1.706;2022-10-26T04:28:41;19.10;;;3.33;;
11034;SDS011;5571;48.110;-1.706;2022-10-26T04:31:06;24.73;;;3.73;;
11034;SDS011;5571;48.110;-1.706;2022-10-26T04:33:31;16.07;;;3.07;;
11034;SDS011;5571;48.110;-1.706;2022-10-26T04:35:57;27.63;;;4.57;;
11034;SDS011;5571;48.110;-1.706;2022-10-26T04:38:26;28.63;;;4.63;;
11034;SDS011;5571;48.110;-1.706;2022-10-26T04:40:51;16.63;;;3.67;;
11034;SDS011;5571;48.110;-1.706;2022-10-26T04:43:17;16.80;;;3.33;;
11034;SDS011;5571;48.110;-1.706;2022-10-26T04:45:42;22.20;;;3.70;;
11034;SDS011;5571;48.110;-1.706;2022-10-26T04:48:11;22.73;;;3.50;;
11034;SDS011;5571;48.110;-1.706;2022-10-26T04:50:37;21.37;;;3.00;;
11034;SDS011;5571;48.110;-1.706;2022-10-26T04:53:03;25.50;;;4.00;;
11034;SDS011;5571;48.110;-1.706;2022-10-26T04:55:30;13.93;;;3.03;;
11034;SDS011;5571;48.110;-1.706;2022-10-26T04:57:56;25.73;;;4.10;;
11034;SDS011;5571;48.110;-1.706;2022-10-26T05:00:21;25.73;;;3.70;;
11034;SDS011;5571;48.110;-1.706;2022-10-26T05:02:47;20.27;;;3.53;;
11034;SDS011;5571;48.110;-1.706;2022-10-26T05:05:12;15.90;;;3.80;;
11034;SDS011;5571;48.110;-1.706;2022-10-26T05:07:38;24.53;;;3.80;;
11034;SDS011;5571;48.110;-1.706;2022-10-26T05:10:03;20.27;;;3.27;;
11034;SDS011;5571;48.110;-1.706;2022-10-26T05:12:29;18.23;;;3.80;;
11034;SDS011;5571;48.110;-1.706;2022-10-26T05:14:54;20.47;;;3.60;;
11034;SDS011;5571;48.110;-1.706;2022-10-26T05:17:23;19.03;;;3.57;;
11034;SDS011;5571;48.110;-1.706;2022-10-26T05:19:49;18.67;;;3.40;;
11034;SDS011;5571;48.110;-1.706;2022-10-26T05:22:19;20.37;;;3.33;;
11034;SDS011;5571;48.110;-1.706;2022-10-26T05:24:45;21.23;;;3.53;;
11034;SDS011;5571;48.110;-1.706;2022-10-26T05:27:10;21.93;;;3.20;;
11034;SDS011;5571;48.110;-1.706;2022-10-26T05:29:35;20.47;;;3.43;;
11034;SDS011;5571;48.110;-1.706;2022-10-26T05:32:01;21.57;;;3.57;;
11034;SDS011;5571;48.110;-1.706;2022-10-26T05:34:26;12.07;;;3.00;;
11034;SDS011;5571;48.110;-1.706;2022-10-26T05:36:52;21.33;;;3.97;;
11034;SDS011;5571;48.110;-1.706;2022-10-26T05:39:18;14.57;;;2.80;;
11034;SDS011;5571;48.110;-1.706;2022-10-26T05:41:44;20.40;;;3.60;;
11034;SDS011;5571;48.110;-1.706;2022-10-26T05:44:09;18.17;;;3.10;;
11034;SDS011;5571;48.110;-1.706;2022-10-26T05:46:34;16.03;;;3.17;;
11034;SDS011;5571;48.110;-1.706;2022-10-26T05:49:00;14.73;;;3.00;;
11034;SDS011;5571;48.110;-1.706;2022-10-26T05:51:25;13.83;;;3.50;;
11034;SDS011;5571;48.110;-1.706;2022-10-26T05:53:50;18.37;;;3.10;;
11034;SDS011;5571;48.110;-1.706;2022-10-26T05:56:19;19.37;;;3.00;;
11034;SDS011;5571;48.110;-1.706;2022-10-26T05:58:46;13.90;;;3.10;;
11034;SDS011;5571;48.110;-1.706;2022-10-26T06:01:14;15.53;;;5.00;;
11034;SDS011;5571;48.110;-1.706;2022-10-26T06:04:24;15.67;;;3.33;;
11034;SDS011;5571;48.110;-1.706;2022-10-26T06:06:57;11.37;;;2.97;;
11034;SDS011;5571;48.110;-1.706;2022-10-26T06:09:23;11.47;;;3.00;;
11034;SDS011;5571;48.110;-1.706;2022-10-26T06:11:49;19.83;;;3.17;;
11034;SDS011;5571;48.110;-1.706;2022-10-26T06:14:14;15.77;;;2.83;;
11034;SDS011;5571;48.110;-1.706;2022-10-26T06:22:27;16.33;;;3.73;;
11034;SDS011;5571;48.110;-1.706;2022-10-26T06:27:35;17.53;;;3.13;;
11034;SDS011;5571;48.110;-1.706;2022-10-26T06:30:10;11.73;;;3.10;;
11034;SDS011;5571;48.110;-1.706;2022-10-26T06:32:36;13.30;;;2.73;;
11034;SDS011;5571;48.110;-1.706;2022-10-26T06:37:39;12.37;;;2.80;;
11034;SDS011;5571;48.110;-1.706;2022-10-26T06:40:08;11.30;;;2.90;;
11034;SDS011;5571;48.110;-1.706;2022-10-26T06:42:35;14.33;;;3.43;;
11034;SDS011;5571;48.110;-1.706;2022-10-26T06:45:01;14.60;;;2.90;;
11034;SDS011;5571;48.110;-1.706;2022-10-26T06:48:09;15.13;;;3.20;;
11034;SDS011;5571;48.110;-1.706;2022-10-26T06:50:26;19.63;;;3.67;;
11034;SDS011;5571;48.110;-1.706;2022-10-26T06:55:44;16.57;;;3.50;;
11034;SDS011;5571;48.110;-1.706;2022-10-26T06:58:15;19.17;;;3.00;;
11034;SDS011;5571;48.110;-1.706;2022-10-26T07:00:49;16.07;;;3.10;;
11034;SDS011;5571;48.110;-1.706;2022-10-26T07:03:17;15.07;;;2.87;;
11034;SDS011;5571;48.110;-1.706;2022-10-26T07:05:43;13.37;;;3.17;;
11034;SDS011;5571;48.110;-1.706;2022-10-26T07:08:08;13.63;;;2.73;;
11034;SDS011;5571;48.110;-1.706;2022-10-26T07:10:34;15.67;;;2.80;;
11034;SDS011;5571;48.110;-1.706;2022-10-26T07:13:03;18.03;;;3.37;;
11034;SDS011;5571;48.110;-1.706;2022-10-26T07:15:29;15.20;;;3.00;;
11034;SDS011;5571;48.110;-1.706;2022-10-26T07:17:54;19.70;;;3.20;;
11034;SDS011;5571;48.110;-1.706;2022-10-26T07:20:20;18.17;;;3.80;;
11034;SDS011;5571;48.110;-1.706;2022-10-26T07:22:53;18.20;;;3.37;;
11034;SDS011;5571;48.110;-1.706;2022-10-26T07:25:19;15.53;;;3.03;;
11034;SDS011;5571;48.110;-1.706;2022-10-26T07:27:45;12.50;;;2.80;;
11034;SDS011;5571;48.110;-1.706;2022-10-26T07:30:11;12.17;;;3.10;;
11034;SDS011;5571;48.110;-1.706;2022-10-26T07:32:36;16.83;;;3.43;;
11034;SDS011;5571;48.110;-1.706;2022-10-26T07:35:02;15.87;;;3.43;;
11034;SDS011;5571;48.110;-1.706;2022-10-26T07:37:27;19.10;;;3.80;;
11034;SDS011;5571;48.110;-1.706;2022-10-26T07:39:52;15.00;;;3.03;;
11034;SDS011;5571;48.110;-1.706;2022-10-26T07:42:18;15.50;;;3.43;;
11034;SDS011;5571;48.110;-1.706;2022-10-26T07:44:43;19.90;;;3.17;;
11034;SDS011;5571;48.110;-1.706;2022-10-26T07:47:08;9.83;;;3.00;;
11034;SDS011;5571;48.110;-1.706;2022-10-26T07:49:34;17.30;;;3.20;;
11034;SDS011;5571;48.110;-1.706;2022-10-26T07:51:59;13.70;;;2.97;;
11034;SDS011;5571;48.110;-1.706;2022-10-26T07:54:25;11.23;;;3.37;;
11034;SDS011;5571;48.110;-1.706;2022-10-26T07:56:50;20.53;;;3.40;;
11034;SDS011;5571;48.110;-1.706;2022-10-26T07:59:15;18.43;;;3.17;;
11034;SDS011;5571;48.110;-1.706;2022-10-26T08:01:42;15.37;;;3.27;;
11034;SDS011;5571;48.110;-1.706;2022-10-26T08:04:08;17.50;;;3.00;;
11034;SDS011;5571;48.110;-1.706;2022-10-26T08:06:33;15.27;;;3.00;;
11034;SDS011;5571;48.110;-1.706;2022-10-26T08:08:59;18.93;;;3.00;;
11034;SDS011;5571;48.110;-1.706;2022-10-26T08:11:24;13.60;;;2.70;;
11034;SDS011;5571;48.110;-1.706;2022-10-26T08:13:53;16.37;;;3.10;;
11034;SDS011;5571;48.110;-1.706;2022-10-26T08:16:19;13.47;;;3.13;;
11034;SDS011;5571;48.110;-1.706;2022-10-26T08:18:47;14.60;;;3.27;;
11034;SDS011;5571;48.110;-1.706;2022-10-26T08:21:13;20.03;;;3.53;;
11034;SDS011;5571;48.110;-1.706;2022-10-26T08:23:39;16.03;;;2.87;;
11034;SDS011;5571;48.110;-1.706;2022-10-26T08:26:05;14.47;;;3.40;;
11034;SDS011;5571;48.110;-1.706;2022-10-26T08:28:31;18.97;;;3.43;;
11034;SDS011;5571;48.110;-1.706;2022-10-26T08:30:56;18.53;;;3.27;;
11034;SDS011;5571;48.110;-1.706;2022-10-26T08:33:22;15.77;;;3.17;;
11034;SDS011;5571;48.110;-1.706;2022-10-26T08:35:48;15.93;;;3.10;;
11034;SDS011;5571;48.110;-1.706;2022-10-26T08:38:18;11.13;;;2.73;;
11034;SDS011;5571;48.110;-1.706;2022-10-26T08:40:44;14.83;;;3.13;;
11034;SDS011;5571;48.110;-1.706;2022-10-26T08:43:29;13.05;;;2.67;;
11034;SDS011;5571;48.110;-1.706;2022-10-26T08:48:37;18.35;;;3.53;;
11034;SDS011;5571;48.110;-1.706;2022-10-26T08:51:10;17.52;;;2.72;;
11034;SDS011;5571;48.110;-1.706;2022-10-26T08:54:09;15.63;;;3.17;;
11034;SDS011;5571;48.110;-1.706;2022-10-26T08:56:46;12.90;;;2.90;;
11034;SDS011;5571;48.110;-1.706;2022-10-26T09:02:13;15.30;;;3.47;;
11034;SDS011;5571;48.110;-1.706;2022-10-26T09:04:39;18.70;;;3.03;;
11034;SDS011;5571;48.110;-1.706;2022-10-26T09:07:08;15.35;;;3.08;;
11034;SDS011;5571;48.110;-1.706;2022-10-26T09:09:44;16.50;;;3.30;;
11034;SDS011;5571;48.110;-1.706;2022-10-26T09:12:26;17.60;;;3.53;;
11034;SDS011;5571;48.110;-1.706;2022-10-26T09:26:30;17.52;;;3.38;;
11034;SDS011;5571;48.110;-1.706;2022-10-26T09:28:57;13.57;;;3.37;;
11034;SDS011;5571;48.110;-1.706;2022-10-26T09:31:27;11.40;;;3.10;;
11034;SDS011;5571;48.110;-1.706;2022-10-26T09:33:56;14.20;;;2.97;;
11034;SDS011;5571;48.110;-1.706;2022-10-26T09:36:26;18.83;;;3.17;;
11034;SDS011;5571;48.110;-1.706;2022-10-26T09:41:39;14.23;;;3.10;;
11034;SDS011;5571;48.110;-1.706;2022-10-26T09:49:12;8.40;;;2.30;;
11034;SDS011;5571;48.110;-1.706;2022-10-26T09:51:42;6.20;;;1.90;;
11034;SDS011;5571;48.110;-1.706;2022-10-26T09:54:15;4.00;;;1.80;;
11034;SDS011;5571;48.110;-1.706;2022-10-26T09:56:50;6.93;;;2.20;;
11034;SDS011;5571;48.110;-1.706;2022-10-26T09:59:20;5.47;;;1.90;;
11034;SDS011;5571;48.110;-1.706;2022-10-26T10:01:47;9.13;;;2.20;;
11034;SDS011;5571;48.110;-1.706;2022-10-26T10:06:38;8.37;;;2.20;;
11034;SDS011;5571;48.110;-1.706;2022-10-26T10:11:55;10.47;;;2.47;;
11034;SDS011;5571;48.110;-1.706;2022-10-26T10:14:53;8.07;;;2.13;;
11034;SDS011;5571;48.110;-1.706;2022-10-26T10:17:22;7.07;;;1.90;;
11034;SDS011;5571;48.110;-1.706;2022-10-26T10:19:48;6.20;;;1.70;;
11034;SDS011;5571;48.110;-1.706;2022-10-26T10:24:51;7.23;;;1.67;;
11034;SDS011;5571;48.110;-1.706;2022-10-26T10:27:25;7.30;;;1.60;;
11034;SDS011;5571;48.110;-1.706;2022-10-26T10:29:52;5.90;;;1.97;;
11034;SDS011;5571;48.110;-1.706;2022-10-26T10:34:48;4.50;;;1.50;;
11034;SDS011;5571;48.110;-1.706;2022-10-26T10:37:22;3.40;;;1.63;;
11034;SDS011;5571;48.110;-1.706;2022-10-26T10:39:54;6.90;;;1.73;;
11034;SDS011;5571;48.110;-1.706;2022-10-26T10:42:24;5.07;;;1.57;;
11034;SDS011;5571;48.110;-1.706;2022-10-26T10:44:54;3.93;;;1.43;;
11034;SDS011;5571;48.110;-1.706;2022-10-26T10:47:28;4.22;;;1.45;;
11034;SDS011;5571;48.110;-1.706;2022-10-26T10:52:36;3.78;;;1.60;;
11034;SDS011;5571;48.110;-1.706;2022-10-26T11:00:27;8.93;;;1.83;;
11034;SDS011;5571;48.110;-1.706;2022-10-26T11:06:02;5.17;;;1.70;;
11034;SDS011;5571;48.110;-1.706;2022-10-26T11:13:36;7.33;;;2.07;;
11034;SDS011;5571;48.110;-1.706;2022-10-26T11:16:12;8.30;;;1.97;;
11034;SDS011;5571;48.110;-1.706;2022-10-26T11:18:57;7.78;;;1.98;;
11034;SDS011;5571;48.110;-1.706;2022-10-26T11:21:27;7.35;;;1.95;;
11034;SDS011;5571;48.110;-1.706;2022-10-26T11:34:49;3.33;;;1.65;;
11034;SDS011;5571;48.110;-1.706;2022-10-26T11:37:26;5.95;;;1.90;;
11034;SDS011;5571;48.110;-1.706;2022-10-26T11:40:12;5.15;;;2.33;;
11034;SDS011;5571;48.110;-1.706;2022-10-26T11:43:32;6.25;;;2.22;;
11034;SDS011;5571;48.110;-1.706;2022-10-26T11:45:46;5.65;;;1.92;;
11034;SDS011;5571;48.110;-1.706;2022-10-26T11:50:57;5.65;;;1.98;;
11034;SDS011;5571;48.110;-1.706;2022-10-26T11:53:25;5.65;;;2.20;;
11034;SDS011;5571;48.110;-1.706;2022-10-26T11:55:54;7.15;;;2.45;;
11034;SDS011;5571;48.110;-1.706;2022-10-26T11:58:25;10.43;;;2.50;;
11034;SDS011;5571;48.110;-1.706;2022-10-26T12:00:57;8.02;;;2.15;;
11034;SDS011;5571;48.110;-1.706;2022-10-26T12:03:27;6.30;;;2.10;;
11034;SDS011;5571;48.110;-1.706;2022-10-26T12:05:56;9.00;;;2.30;;
11034;SDS011;5571;48.110;-1.706;2022-10-26T12:08:30;7.22;;;2.28;;
11034;SDS011;5571;48.110;-1.706;2022-10-26T12:11:04;6.57;;;1.98;;
11034;SDS011;5571;48.110;-1.706;2022-10-26T12:13:51;4.40;;;1.80;;
11034;SDS011;5571;48.110;-1.706;2022-10-26T12:22:04;10.32;;;2.75;;
11034;SDS011;5571;48.110;-1.706;2022-10-26T12:24:41;4.00;;;2.13;;
11034;SDS011;5571;48.110;-1.706;2022-10-26T12:30:13;9.00;;;2.47;;
11034;SDS011;5571;48.110;-1.706;2022-10-26T12:32:49;5.95;;;1.95;;
11034;SDS011;5571;48.110;-1.706;2022-10-26T12:53:49;8.07;;;2.40;;
11034;SDS011;5571;48.110;-1.706;2022-10-26T13:07:22;6.50;;;2.58;;
11034;SDS011;5571;48.110;-1.706;2022-10-26T13:09:59;12.48;;;2.60;;
11034;SDS011;5571;48.110;-1.706;2022-10-26T13:12:28;8.05;;;2.47;;
11034;SDS011;5571;48.110;-1.706;2022-10-26T13:15:03;8.27;;;2.25;;
11034;SDS011;5571;48.110;-1.706;2022-10-26T13:17:42;7.13;;;2.65;;
11034;SDS011;5571;48.110;-1.706;2022-10-26T13:20:19;10.18;;;2.45;;
11034;SDS011;5571;48.110;-1.706;2022-10-26T13:22:45;9.38;;;2.30;;
11034;SDS011;5571;48.110;-1.706;2022-10-26T13:25:17;13.52;;;2.50;;
11034;SDS011;5571;48.110;-1.706;2022-10-26T13:28:03;5.10;;;2.05;;
11034;SDS011;5571;48.110;-1.706;2022-10-26T13:30:35;10.68;;;2.60;;
11034;SDS011;5571;48.110;-1.706;2022-10-26T13:33:10;7.47;;;2.30;;
11034;SDS011;5571;48.110;-1.706;2022-10-26T13:35:44;10.05;;;2.47;;
11034;SDS011;5571;48.110;-1.706;2022-10-26T13:38:10;8.80;;;2.50;;
11034;SDS011;5571;48.110;-1.706;2022-10-26T13:40:37;13.68;;;2.92;;
11034;SDS011;5571;48.110;-1.706;2022-10-26T13:43:03;13.35;;;2.53;;
11034;SDS011;5571;48.110;-1.706;2022-10-26T13:45:54;9.55;;;2.58;;
11034;SDS011;5571;48.110;-1.706;2022-10-26T13:48:25;9.43;;;2.15;;
11034;SDS011;5571;48.110;-1.706;2022-10-26T13:50:58;9.57;;;2.17;;
11034;SDS011;5571;48.110;-1.706;2022-10-26T13:56:30;14.07;;;2.60;;
11034;SDS011;5571;48.110;-1.706;2022-10-26T13:59:00;9.18;;;2.13;;
11034;SDS011;5571;48.110;-1.706;2022-10-26T14:01:37;11.32;;;2.55;;
11034;SDS011;5571;48.110;-1.706;2022-10-26T14:04:16;11.07;;;2.50;;
11034;SDS011;5571;48.110;-1.706;2022-10-26T14:06:49;10.52;;;2.70;;
11034;SDS011;5571;48.110;-1.706;2022-10-26T14:09:15;9.95;;;2.42;;
11034;SDS011;5571;48.110;-1.706;2022-10-26T14:11:43;7.70;;;2.42;;
11034;SDS011;5571;48.110;-1.706;2022-10-26T14:14:13;10.40;;;2.33;;
11034;SDS011;5571;48.110;-1.706;2022-10-26T14:16:43;10.73;;;2.90;;
11034;SDS011;5571;48.110;-1.706;2022-10-26T14:19:19;10.20;;;2.17;;
11034;SDS011;5571;48.110;-1.706;2022-10-26T14:21:49;11.63;;;2.63;;
11034;SDS011;5571;48.110;-1.706;2022-10-26T14:24:22;9.65;;;2.40;;
11034;SDS011;5571;48.110;-1.706;2022-10-26T14:26:50;10.10;;;2.63;;
11034;SDS011;5571;48.110;-1.706;2022-10-26T14:29:17;9.70;;;2.20;;
11034;SDS011;5571;48.110;-1.706;2022-10-26T14:31:44;8.80;;;2.42;;
11034;SDS011;5571;48.110;-1.706;2022-10-26T14:34:10;8.43;;;2.22;;
11034;SDS011;5571;48.110;-1.706;2022-10-26T14:36:38;9.07;;;2.08;;
11034;SDS011;5571;48.110;-1.706;2022-10-26T14:39:06;7.40;;;2.38;;
11034;SDS011;5571;48.110;-1.706;2022-10-26T14:41:50;8.13;;;2.65;;
11034;SDS011;5571;48.110;-1.706;2022-10-26T14:44:19;11.27;;;2.78;;
11034;SDS011;5571;48.110;-1.706;2022-10-26T14:46:47;11.23;;;2.40;;
11034;SDS011;5571;48.110;-1.706;2022-10-26T14:49:22;15.05;;;2.80;;
11034;SDS011;5571;48.110;-1.706;2022-10-26T14:51:55;8.52;;;2.20;;
11034;SDS011;5571;48.110;-1.706;2022-10-26T14:54:23;7.20;;;2.10;;
11034;SDS011;5571;48.110;-1.706;2022-10-26T14:56:50;12.57;;;2.60;;
11034;SDS011;5571;48.110;-1.706;2022-10-26T15:01:50;10.18;;;2.22;;
11034;SDS011;5571;48.110;-1.706;2022-10-26T15:04:37;9.23;;;2.60;;
11034;SDS011;5571;48.110;-1.706;2022-10-26T15:09:42;8.57;;;2.42;;
11034;SDS011;5571;48.110;-1.706;2022-10-26T15:14:55;10.55;;;2.67;;
11034;SDS011;5571;48.110;-1.706;2022-10-26T15:17:36;10.25;;;2.65;;
11034;SDS011;5571;48.110;-1.706;2022-10-26T15:20:04;7.50;;;2.70;;
11034;SDS011;5571;48.110;-1.706;2022-10-26T15:22:31;12.60;;;2.65;;
11034;SDS011;5571;48.110;-1.706;2022-10-26T15:24:59;9.55;;;2.47;;
11034;SDS011;5571;48.110;-1.706;2022-10-26T15:27:28;9.05;;;2.42;;
11034;SDS011;5571;48.110;-1.706;2022-10-26T15:32:38;10.10;;;2.55;;
11034;SDS011;5571;48.110;-1.706;2022-10-26T15:35:20;10.00;;;2.25;;
11034;SDS011;5571;48.110;-1.706;2022-10-26T15:37:49;12.98;;;2.60;;
11034;SDS011;5571;48.110;-1.706;2022-10-26T15:40:16;8.38;;;2.70;;
11034;SDS011;5571;48.110;-1.706;2022-10-26T15:42:42;11.20;;;2.90;;
11034;SDS011;5571;48.110;-1.706;2022-10-26T15:45:23;8.65;;;2.50;;
11034;SDS011;5571;48.110;-1.706;2022-10-26T15:47:54;15.05;;;3.72;;
11034;SDS011;5571;48.110;-1.706;2022-10-26T15:50:22;9.52;;;2.85;;
11034;SDS011;5571;48.110;-1.706;2022-10-26T15:52:49;9.88;;;2.88;;
11034;SDS011;5571;48.110;-1.706;2022-10-26T15:55:23;14.30;;;2.70;;
11034;SDS011;5571;48.110;-1.706;2022-10-26T15:57:49;11.98;;;3.22;;
11034;SDS011;5571;48.110;-1.706;2022-10-26T16:00:15;16.83;;;6.05;;
11034;SDS011;5571;48.110;-1.706;2022-10-26T16:02:41;12.57;;;4.43;;
11034;SDS011;5571;48.110;-1.706;2022-10-26T16:05:08;12.57;;;3.35;;
11034;SDS011;5571;48.110;-1.706;2022-10-26T16:07:36;7.45;;;2.42;;
11034;SDS011;5571;48.110;-1.706;2022-10-26T16:10:02;8.45;;;2.55;;
11034;SDS011;5571;48.110;-1.706;2022-10-26T16:12:27;15.23;;;3.40;;
11034;SDS011;5571;48.110;-1.706;2022-10-26T16:14:53;9.88;;;2.80;;
11034;SDS011;5571;48.110;-1.706;2022-10-26T16:17:18;14.18;;;2.60;;
11034;SDS011;5571;48.110;-1.706;2022-10-26T16:19:43;6.25;;;2.20;;
11034;SDS011;5571;48.110;-1.706;2022-10-26T16:22:09;9.13;;;3.35;;
11034;SDS011;5571;48.110;-1.706;2022-10-26T16:24:35;12.43;;;2.80;;
11034;SDS011;5571;48.110;-1.706;2022-10-26T16:27:00;12.68;;;3.25;;
11034;SDS011;5571;48.110;-1.706;2022-10-26T16:29:25;11.82;;;5.35;;
11034;SDS011;5571;48.110;-1.706;2022-10-26T16:31:51;18.80;;;4.95;;
11034;SDS011;5571;48.110;-1.706;2022-10-26T16:34:16;17.40;;;5.53;;
11034;SDS011;5571;48.110;-1.706;2022-10-26T16:36:42;10.75;;;3.40;;
11034;SDS011;5571;48.110;-1.706;2022-10-26T16:39:08;11.40;;;3.90;;
11034;SDS011;5571;48.110;-1.706;2022-10-26T16:41:35;9.32;;;3.08;;
11034;SDS011;5571;48.110;-1.706;2022-10-26T16:44:00;12.45;;;2.80;;
11034;SDS011;5571;48.110;-1.706;2022-10-26T16:46:26;10.10;;;3.05;;
11034;SDS011;5571;48.110;-1.706;2022-10-26T16:48:51;10.27;;;2.55;;
11034;SDS011;5571;48.110;-1.706;2022-10-26T16:51:18;9.90;;;2.95;;
11034;SDS011;5571;48.110;-1.706;2022-10-26T16:53:48;8.68;;;2.95;;
11034;SDS011;5571;48.110;-1.706;2022-10-26T16:56:17;8.13;;;2.67;;
11034;SDS011;5571;48.110;-1.706;2022-10-26T16:58:44;9.98;;;2.70;;
11034;SDS011;5571;48.110;-1.706;2022-10-26T17:01:10;11.52;;;3.10;;
11034;SDS011;5571;48.110;-1.706;2022-10-26T17:03:37;7.53;;;2.80;;
11034;SDS011;5571;48.110;-1.706;2022-10-26T17:06:04;14.30;;;3.30;;
11034;SDS011;5571;48.110;-1.706;2022-10-26T17:08:32;10.77;;;3.55;;
11034;SDS011;5571;48.110;-1.706;2022-10-26T17:11:05;13.50;;;4.45;;
11034;SDS011;5571;48.110;-1.706;2022-10-26T17:13:33;14.63;;;4.03;;
11034;SDS011;5571;48.110;-1.706;2022-10-26T17:16:00;12.32;;;4.97;;
11034;SDS011;5571;48.110;-1.706;2022-10-26T17:18:29;7.93;;;3.97;;
11034;SDS011;5571;48.110;-1.706;2022-10-26T17:20:55;16.00;;;5.63;;
11034;SDS011;5571;48.110;-1.706;2022-10-26T17:23:20;13.23;;;6.20;;
11034;SDS011;5571;48.110;-1.706;2022-10-26T17:25:46;16.58;;;6.90;;
11034;SDS011;5571;48.110;-1.706;2022-10-26T17:28:11;23.73;;;9.70;;